sensor_id;sensor_type;location;lat;lon;timestamp;pressure;altitude;pressure_sealevel;temperature;humidity
17362;BME280;8798;51.938;4.348;2022-10-16T00:01:35;100762.16;;;16.83;75.39
17362;BME280;8798;51.938;4.348;2022-10-16T00:04:03;100764.03;;;16.83;75.56
17362;BME280;8798;51.938;4.348;2022-10-16T00:06:32;100765.69;;;16.84;75.50
17362;BME280;8798;51.938;4.348;2022-10-16T00:09:00;100763.00;;;16.84;74.96
17362;BME280;8798;51.938;4.348;2022-10-16T00:11:29;100764.03;;;16.83;75.02
17362;BME280;8798;51.938;4.348;2022-10-16T00:14:02;100757.97;;;16.81;75.27
17362;BME280;8798;51.938;4.348;2022-10-16T00:16:30;100760.66;;;16.81;74.79
17362;BME280;8798;51.938;4.348;2022-10-16T00:18:58;100769.66;;;16.81;74.99
17362;BME280;8798;51.938;4.348;2022-10-16T00:21:28;100763.38;;;16.81;74.86
17362;BME280;8798;51.938;4.348;2022-10-16T00:23:59;100764.44;;;16.80;75.06
17362;BME280;8798;51.938;4.348;2022-10-16T00:26:29;100751.88;;;16.79;75.00
17362;BME280;8798;51.938;4.348;2022-10-16T00:28:57;100764.44;;;16.80;74.63
17362;BME280;8798;51.938;4.348;2022-10-16T00:31:26;100772.34;;;16.81;74.70
17362;BME280;8798;51.938;4.348;2022-10-16T00:33:54;100773.22;;;16.82;74.48
17362;BME280;8798;51.938;4.348;2022-10-16T00:36:23;100791.00;;;16.84;74.95
17362;BME280;8798;51.938;4.348;2022-10-16T00:38:52;100786.56;;;16.83;74.53
17362;BME280;8798;51.938;4.348;2022-10-16T00:41:23;100789.28;;;16.83;74.49
17362;BME280;8798;51.938;4.348;2022-10-16T00:43:53;100794.53;;;16.85;74.43
17362;BME280;8798;51.938;4.348;2022-10-16T00:46:23;100800.16;;;16.83;74.32
17362;BME280;8798;51.938;4.348;2022-10-16T00:48:54;100796.59;;;16.83;73.99
17362;BME280;8798;51.938;4.348;2022-10-16T00:51:30;100789.50;;;16.82;74.10
17362;BME280;8798;51.938;4.348;2022-10-16T00:53:58;100789.69;;;16.80;74.34
17362;BME280;8798;51.938;4.348;2022-10-16T00:56:28;100779.00;;;16.79;74.28
17362;BME280;8798;51.938;4.348;2022-10-16T00:58:56;100771.25;;;16.75;74.14
17362;BME280;8798;51.938;4.348;2022-10-16T01:01:24;100757.03;;;16.73;74.21
17362;BME280;8798;51.938;4.348;2022-10-16T01:03:52;100753.66;;;16.71;73.96
17362;BME280;8798;51.938;4.348;2022-10-16T01:06:23;100740.50;;;16.68;74.00
17362;BME280;8798;51.938;4.348;2022-10-16T01:09:02;100732.09;;;16.63;74.09
17362;BME280;8798;51.938;4.348;2022-10-16T01:11:39;100718.94;;;16.60;73.91
17362;BME280;8798;51.938;4.348;2022-10-16T01:14:15;100709.31;;;16.58;73.86
17362;BME280;8798;51.938;4.348;2022-10-16T01:16:49;100697.16;;;16.53;74.17
17362;BME280;8798;51.938;4.348;2022-10-16T01:19:24;100697.38;;;16.52;74.33
17362;BME280;8798;51.938;4.348;2022-10-16T01:21:57;100697.38;;;16.52;73.89
17362;BME280;8798;51.938;4.348;2022-10-16T01:24:31;100679.81;;;16.48;74.23
17362;BME280;8798;51.938;4.348;2022-10-16T01:27:09;100681.03;;;16.45;74.13
17362;BME280;8798;51.938;4.348;2022-10-16T01:29:41;100686.28;;;16.47;74.26
17362;BME280;8798;51.938;4.348;2022-10-16T01:32:15;100683.75;;;16.45;74.17
17362;BME280;8798;51.938;4.348;2022-10-16T01:34:48;100680.41;;;16.43;74.13
17362;BME280;8798;51.938;4.348;2022-10-16T01:37:22;100689.56;;;16.42;74.17
17362;BME280;8798;51.938;4.348;2022-10-16T01:39:53;100690.41;;;16.43;74.13
17362;BME280;8798;51.938;4.348;2022-10-16T01:42:28;100690.19;;;16.44;74.22
17362;BME280;8798;51.938;4.348;2022-10-16T01:44:58;100695.84;;;16.43;74.19
17362;BME280;8798;51.938;4.348;2022-10-16T01:47:27;100687.03;;;16.41;73.92
17362;BME280;8798;51.938;4.348;2022-10-16T01:49:56;100696.22;;;16.40;74.41
17362;BME280;8798;51.938;4.348;2022-10-16T01:52:26;100697.25;;;16.39;74.20
17362;BME280;8798;51.938;4.348;2022-10-16T01:54:56;100687.63;;;16.36;74.23
17362;BME280;8798;51.938;4.348;2022-10-16T01:57:28;100685.13;;;16.34;74.07
17362;BME280;8798;51.938;4.348;2022-10-16T02:00:02;100689.69;;;16.34;74.03
17362;BME280;8798;51.938;4.348;2022-10-16T02:02:31;100694.94;;;16.36;74.12
17362;BME280;8798;51.938;4.348;2022-10-16T02:05:05;100685.31;;;16.33;74.22
17362;BME280;8798;51.938;4.348;2022-10-16T02:07:36;100693.44;;;16.33;74.14
17362;BME280;8798;51.938;4.348;2022-10-16T02:10:04;100694.28;;;16.33;74.27
17362;BME280;8798;51.938;4.348;2022-10-16T02:12:35;100714.94;;;16.34;74.20
17362;BME280;8798;51.938;4.348;2022-10-16T02:15:06;100716.44;;;16.37;74.19
17362;BME280;8798;51.938;4.348;2022-10-16T02:17:34;100715.78;;;16.35;74.22
17362;BME280;8798;51.938;4.348;2022-10-16T02:20:03;100727.47;;;16.36;74.33
17362;BME280;8798;51.938;4.348;2022-10-16T02:22:33;100721.19;;;16.35;73.88
17362;BME280;8798;51.938;4.348;2022-10-16T02:25:06;100723.09;;;16.34;74.43
17362;BME280;8798;51.938;4.348;2022-10-16T02:27:41;100725.13;;;16.32;74.18
17362;BME280;8798;51.938;4.348;2022-10-16T02:30:15;100728.69;;;16.33;74.33
17362;BME280;8798;51.938;4.348;2022-10-16T02:32:46;100726.81;;;16.33;74.20
17362;BME280;8798;51.938;4.348;2022-10-16T02:35:17;100732.44;;;16.32;74.29
17362;BME280;8798;51.938;4.348;2022-10-16T02:37:46;100737.84;;;16.32;74.45
17362;BME280;8798;51.938;4.348;2022-10-16T02:40:14;100728.88;;;16.31;74.22
17362;BME280;8798;51.938;4.348;2022-10-16T02:42:51;100731.78;;;16.30;74.44
17362;BME280;8798;51.938;4.348;2022-10-16T02:45:19;100724.66;;;16.29;74.32
17362;BME280;8798;51.938;4.348;2022-10-16T02:47:47;100722.16;;;16.27;74.38
17362;BME280;8798;51.938;4.348;2022-10-16T02:50:15;100710.84;;;16.24;74.36
17362;BME280;8798;51.938;4.348;2022-10-16T02:52:44;100708.53;;;16.21;74.41
17362;BME280;8798;51.938;4.348;2022-10-16T02:55:11;100689.94;;;16.18;74.06
17362;BME280;8798;51.938;4.348;2022-10-16T02:57:39;100698.25;;;16.16;74.32
17362;BME280;8798;51.938;4.348;2022-10-16T03:00:12;100698.25;;;16.16;74.07
17362;BME280;8798;51.938;4.348;2022-10-16T03:02:40;100694.91;;;16.14;74.39
17362;BME280;8798;51.938;4.348;2022-10-16T03:05:08;100702.03;;;16.15;74.33
17362;BME280;8798;51.938;4.348;2022-10-16T03:07:36;100711.81;;;16.16;74.27
17362;BME280;8798;51.938;4.348;2022-10-16T03:10:05;100718.06;;;16.17;74.46
17362;BME280;8798;51.938;4.348;2022-10-16T03:12:33;100724.34;;;16.17;74.32
17362;BME280;8798;51.938;4.348;2022-10-16T03:15:01;100727.06;;;16.17;74.39
17362;BME280;8798;51.938;4.348;2022-10-16T03:17:31;100743.13;;;16.19;74.55
17362;BME280;8798;51.938;4.348;2022-10-16T03:19:59;100737.91;;;16.17;74.62
17362;BME280;8798;51.938;4.348;2022-10-16T03:22:27;100736.03;;;16.18;74.52
17362;BME280;8798;51.938;4.348;2022-10-16T03:24:54;100737.25;;;16.15;74.27
17362;BME280;8798;51.938;4.348;2022-10-16T03:27:22;100744.34;;;16.16;74.68
17362;BME280;8798;51.938;4.348;2022-10-16T03:29:50;100759.59;;;16.17;74.53
17362;BME280;8798;51.938;4.348;2022-10-16T03:32:18;100757.72;;;16.18;74.66
17362;BME280;8798;51.938;4.348;2022-10-16T03:34:47;100763.13;;;16.18;74.60
17362;BME280;8798;51.938;4.348;2022-10-16T03:37:15;100770.44;;;16.17;74.70
17362;BME280;8798;51.938;4.348;2022-10-16T03:39:43;100772.09;;;16.18;74.68
17362;BME280;8798;51.938;4.348;2022-10-16T03:42:11;100775.00;;;16.17;74.76
17362;BME280;8798;51.938;4.348;2022-10-16T03:44:39;100771.25;;;16.18;74.71
17362;BME280;8798;51.938;4.348;2022-10-16T03:47:06;100781.28;;;16.17;74.70
17362;BME280;8798;51.938;4.348;2022-10-16T03:49:34;100777.69;;;16.17;74.68
17362;BME280;8798;51.938;4.348;2022-10-16T03:52:03;100786.69;;;16.17;74.75
17362;BME280;8798;51.938;4.348;2022-10-16T03:54:31;100780.41;;;16.17;74.94
17362;BME280;8798;51.938;4.348;2022-10-16T03:56:59;100791.47;;;16.15;74.68
17362;BME280;8798;51.938;4.348;2022-10-16T03:59:27;100789.59;;;16.16;74.82
17362;BME280;8798;51.938;4.348;2022-10-16T04:01:54;100787.06;;;16.14;74.82
17362;BME280;8798;51.938;4.348;2022-10-16T04:04:22;100791.47;;;16.15;74.95
17362;BME280;8798;51.938;4.348;2022-10-16T04:06:51;100803.97;;;16.16;74.70
17362;BME280;8798;51.938;4.348;2022-10-16T04:09:20;100806.69;;;16.16;74.74
17362;BME280;8798;51.938;4.348;2022-10-16T04:11:47;100815.66;;;16.17;74.68
17362;BME280;8798;51.938;4.348;2022-10-16T04:14:15;100815.66;;;16.17;74.82
17362;BME280;8798;51.938;4.348;2022-10-16T04:16:43;100820.88;;;16.18;75.09
17362;BME280;8798;51.938;4.348;2022-10-16T04:19:11;100818.19;;;16.18;74.85
17362;BME280;8798;51.938;4.348;2022-10-16T04:21:39;100820.06;;;16.18;74.99
17362;BME280;8798;51.938;4.348;2022-10-16T04:24:07;100825.47;;;16.18;74.96
17362;BME280;8798;51.938;4.348;2022-10-16T04:26:36;100826.69;;;16.15;75.02
17362;BME280;8798;51.938;4.348;2022-10-16T04:29:04;100822.28;;;16.14;75.16
17362;BME280;8798;51.938;4.348;2022-10-16T04:31:33;100821.44;;;16.13;75.40
17362;BME280;8798;51.938;4.348;2022-10-16T04:34:01;100825.81;;;16.15;74.89
17362;BME280;8798;51.938;4.348;2022-10-16T04:36:28;100833.97;;;16.15;75.17
17362;BME280;8798;51.938;4.348;2022-10-16T04:38:57;100830.41;;;16.14;75.09
17362;BME280;8798;51.938;4.348;2022-10-16T04:41:24;100840.41;;;16.13;74.57
17362;BME280;8798;51.938;4.348;2022-10-16T04:43:53;100846.69;;;16.14;75.21
17362;BME280;8798;51.938;4.348;2022-10-16T04:46:21;100849.22;;;16.16;75.04
17362;BME280;8798;51.938;4.348;2022-10-16T04:48:49;100854.63;;;16.16;75.05
17362;BME280;8798;51.938;4.348;2022-10-16T04:51:17;100866.31;;;16.16;75.35
17362;BME280;8798;51.938;4.348;2022-10-16T04:53:45;100853.97;;;16.13;75.37
17362;BME280;8798;51.938;4.348;2022-10-16T04:56:13;100861.06;;;16.15;75.37
17362;BME280;8798;51.938;4.348;2022-10-16T04:58:41;100866.31;;;16.16;75.26
17362;BME280;8798;51.938;4.348;2022-10-16T05:01:10;100874.63;;;16.15;75.16
17362;BME280;8798;51.938;4.348;2022-10-16T05:03:38;100879.84;;;16.16;75.46
17362;BME280;8798;51.938;4.348;2022-10-16T05:06:06;100884.28;;;16.17;75.33
17362;BME280;8798;51.938;4.348;2022-10-16T05:08:34;100881.75;;;16.16;75.38
17362;BME280;8798;51.938;4.348;2022-10-16T05:11:02;100884.63;;;16.14;75.45
17362;BME280;8798;51.938;4.348;2022-10-16T05:13:31;100876.69;;;16.12;75.43
17362;BME280;8798;51.938;4.348;2022-10-16T05:15:59;100875.00;;;16.11;75.48
17362;BME280;8798;51.938;4.348;2022-10-16T05:18:30;100868.09;;;16.09;75.15
17362;BME280;8798;51.938;4.348;2022-10-16T05:20:57;100875.38;;;16.08;75.26
17362;BME280;8798;51.938;4.348;2022-10-16T05:23:25;100867.63;;;16.05;75.39
17362;BME280;8798;51.938;4.348;2022-10-16T05:25:53;100867.81;;;16.04;75.56
17362;BME280;8798;51.938;4.348;2022-10-16T05:28:22;100863.44;;;16.03;75.64
17362;BME280;8798;51.938;4.348;2022-10-16T05:30:49;100865.09;;;16.04;75.76
17362;BME280;8798;51.938;4.348;2022-10-16T05:33:21;100867.81;;;16.04;75.71
17362;BME280;8798;51.938;4.348;2022-10-16T05:35:51;100879.69;;;16.03;75.68
17362;BME280;8798;51.938;4.348;2022-10-16T05:38:19;100869.84;;;16.02;75.67
17362;BME280;8798;51.938;4.348;2022-10-16T05:40:50;100873.59;;;16.01;75.69
17362;BME280;8798;51.938;4.348;2022-10-16T05:43:18;100878.19;;;16.00;75.71
17362;BME280;8798;51.938;4.348;2022-10-16T05:45:53;100877.53;;;15.98;75.80
17362;BME280;8798;51.938;4.348;2022-10-16T05:48:22;100868.75;;;15.96;75.62
17362;BME280;8798;51.938;4.348;2022-10-16T05:50:58;100877.72;;;15.97;75.87
17362;BME280;8798;51.938;4.348;2022-10-16T05:53:27;100881.06;;;15.99;75.79
17362;BME280;8798;51.938;4.348;2022-10-16T05:55:56;100891.91;;;15.99;76.01
17362;BME280;8798;51.938;4.348;2022-10-16T05:58:24;100894.63;;;15.99;75.69
17362;BME280;8798;51.938;4.348;2022-10-16T06:00:54;100891.09;;;15.98;75.92
17362;BME280;8798;51.938;4.348;2022-10-16T06:03:22;100888.75;;;15.95;75.91
17362;BME280;8798;51.938;4.348;2022-10-16T06:05:50;100883.69;;;15.92;75.82
17362;BME280;8798;51.938;4.348;2022-10-16T06:08:22;100879.13;;;15.93;75.71
17362;BME280;8798;51.938;4.348;2022-10-16T06:11:00;100876.75;;;15.89;75.88
17362;BME280;8798;51.938;4.348;2022-10-16T06:13:28;100893.69;;;15.91;75.95
17362;BME280;8798;51.938;4.348;2022-10-16T06:15:57;100901.44;;;15.95;76.21
17362;BME280;8798;51.938;4.348;2022-10-16T06:18:25;100913.97;;;15.96;76.19
17362;BME280;8798;51.938;4.348;2022-10-16T06:20:53;100916.47;;;15.97;75.96
17362;BME280;8798;51.938;4.348;2022-10-16T06:23:23;100916.84;;;15.94;76.12
17362;BME280;8798;51.938;4.348;2022-10-16T06:25:50;100921.44;;;15.94;75.89
17362;BME280;8798;51.938;4.348;2022-10-16T06:28:18;100924.16;;;15.94;75.92
17362;BME280;8798;51.938;4.348;2022-10-16T06:30:46;100928.72;;;15.93;75.81
17362;BME280;8798;51.938;4.348;2022-10-16T06:33:14;100935.00;;;15.94;75.98
17362;BME280;8798;51.938;4.348;2022-10-16T06:35:41;100937.69;;;15.94;75.81
17362;BME280;8798;51.938;4.348;2022-10-16T06:38:09;100943.13;;;15.94;76.05
17362;BME280;8798;51.938;4.348;2022-10-16T06:40:38;100929.94;;;15.90;75.76
17362;BME280;8798;51.938;4.348;2022-10-16T06:43:06;100925.75;;;15.88;75.86
17362;BME280;8798;51.938;4.348;2022-10-16T06:45:33;100928.44;;;15.88;75.85
17362;BME280;8798;51.938;4.348;2022-10-16T06:48:02;100927.78;;;15.86;76.25
17362;BME280;8798;51.938;4.348;2022-10-16T06:50:30;100932.16;;;15.87;75.93
17362;BME280;8798;51.938;4.348;2022-10-16T06:52:57;100927.78;;;15.86;76.02
17362;BME280;8798;51.938;4.348;2022-10-16T06:55:25;100933.19;;;15.86;75.89
17362;BME280;8798;51.938;4.348;2022-10-16T06:57:54;100935.06;;;15.85;76.13
17362;BME280;8798;51.938;4.348;2022-10-16T07:00:22;100924.59;;;15.82;76.02
17362;BME280;8798;51.938;4.348;2022-10-16T07:02:55;100921.25;;;15.80;75.99
17362;BME280;8798;51.938;4.348;2022-10-16T07:05:24;100917.22;;;15.76;75.99
17362;BME280;8798;51.938;4.348;2022-10-16T07:07:51;100909.25;;;15.75;75.89
17362;BME280;8798;51.938;4.348;2022-10-16T07:10:19;100919.09;;;15.76;76.28
17362;BME280;8798;51.938;4.348;2022-10-16T07:12:50;100924.50;;;15.76;76.08
17362;BME280;8798;51.938;4.348;2022-10-16T07:15:19;100922.81;;;15.75;76.05
17362;BME280;8798;51.938;4.348;2022-10-16T07:17:47;100936.34;;;15.75;76.23
17362;BME280;8798;51.938;4.348;2022-10-16T07:20:15;100934.50;;;15.75;76.07
17362;BME280;8798;51.938;4.348;2022-10-16T07:22:43;100931.97;;;15.74;76.21
17362;BME280;8798;51.938;4.348;2022-10-16T07:25:11;100945.34;;;15.75;76.32
17362;BME280;8798;51.938;4.348;2022-10-16T07:27:38;100965.13;;;15.76;76.23
17362;BME280;8798;51.938;4.348;2022-10-16T07:30:08;100966.63;;;15.78;76.21
17362;BME280;8798;51.938;4.348;2022-10-16T07:32:37;100973.94;;;15.78;76.30
17362;BME280;8798;51.938;4.348;2022-10-16T07:35:06;100989.81;;;15.81;76.25
17362;BME280;8798;51.938;4.348;2022-10-16T07:37:34;101005.84;;;15.82;76.38
17362;BME280;8798;51.938;4.348;2022-10-16T07:40:02;101016.53;;;15.84;76.17
17362;BME280;8798;51.938;4.348;2022-10-16T07:42:30;101025.47;;;15.84;76.37
17362;BME280;8798;51.938;4.348;2022-10-16T07:44:58;101022.97;;;15.83;76.36
17362;BME280;8798;51.938;4.348;2022-10-16T07:47:25;101032.78;;;15.84;76.72
17362;BME280;8798;51.938;4.348;2022-10-16T07:49:55;101035.50;;;15.84;76.63
17362;BME280;8798;51.938;4.348;2022-10-16T07:52:23;101038.19;;;15.84;76.34
17362;BME280;8798;51.938;4.348;2022-10-16T07:54:50;101057.66;;;15.87;76.28
17362;BME280;8798;51.938;4.348;2022-10-16T07:57:18;101063.25;;;15.86;76.32
17362;BME280;8798;51.938;4.348;2022-10-16T07:59:46;101070.34;;;15.87;76.43
17362;BME280;8798;51.938;4.348;2022-10-16T08:02:14;101073.91;;;15.87;76.40
17362;BME280;8798;51.938;4.348;2022-10-16T08:04:42;101085.22;;;15.91;76.38
17362;BME280;8798;51.938;4.348;2022-10-16T08:07:11;101111.09;;;15.94;76.41
17362;BME280;8798;51.938;4.348;2022-10-16T08:09:38;101118.03;;;15.96;76.57
17362;BME280;8798;51.938;4.348;2022-10-16T08:12:07;101134.13;;;15.98;76.41
17362;BME280;8798;51.938;4.348;2022-10-16T08:14:36;101135.78;;;15.99;76.41
17362;BME280;8798;51.938;4.348;2022-10-16T08:17:04;101148.31;;;16.00;76.35
17362;BME280;8798;51.938;4.348;2022-10-16T08:19:32;101153.72;;;16.00;76.65
17362;BME280;8798;51.938;4.348;2022-10-16T08:22:00;101162.53;;;16.02;76.51
17362;BME280;8798;51.938;4.348;2022-10-16T08:24:30;101171.31;;;16.04;76.21
17362;BME280;8798;51.938;4.348;2022-10-16T08:26:58;101191.63;;;16.08;76.45
17362;BME280;8798;51.938;4.348;2022-10-16T08:29:26;101201.44;;;16.09;76.59
17362;BME280;8798;51.938;4.348;2022-10-16T08:31:54;101215.66;;;16.11;76.63
17362;BME280;8798;51.938;4.348;2022-10-16T08:34:22;101229.88;;;16.13;76.43
17362;BME280;8798;51.938;4.348;2022-10-16T08:36:49;101228.00;;;16.13;76.35
17362;BME280;8798;51.938;4.348;2022-10-16T08:39:17;101235.97;;;16.15;76.39
17362;BME280;8798;51.938;4.348;2022-10-16T08:42:11;101252.72;;;16.19;76.55
17362;BME280;8798;51.938;4.348;2022-10-16T08:47:46;101276.75;;;16.22;76.49
17362;BME280;8798;51.938;4.348;2022-10-16T08:50:20;101290.81;;;16.25;76.56
17362;BME280;8798;51.938;4.348;2022-10-16T08:52:51;101300.44;;;16.28;76.47
17362;BME280;8798;51.938;4.348;2022-10-16T08:55:29;101312.81;;;16.30;76.41
17362;BME280;8798;51.938;4.348;2022-10-16T08:58:00;101329.75;;;16.32;76.19
17362;BME280;8798;51.938;4.348;2022-10-16T09:00:29;101333.13;;;16.34;76.33
17362;BME280;8798;51.938;4.348;2022-10-16T09:03:04;101353.78;;;16.36;76.36
17362;BME280;8798;51.938;4.348;2022-10-16T09:08:54;101365.97;;;16.40;76.32
17362;BME280;8798;51.938;4.348;2022-10-16T09:11:37;101373.91;;;16.41;76.51
17362;BME280;8798;51.938;4.348;2022-10-16T09:14:22;101382.91;;;16.42;76.39
17362;BME280;8798;51.938;4.348;2022-10-16T09:16:55;101380.03;;;16.43;76.41
17362;BME280;8798;51.938;4.348;2022-10-16T09:19:30;101401.56;;;16.45;76.44
17362;BME280;8798;51.938;4.348;2022-10-16T09:21:59;101401.19;;;16.48;76.65
17362;BME280;8798;51.938;4.348;2022-10-16T09:24:29;101418.13;;;16.50;76.57
17362;BME280;8798;51.938;4.348;2022-10-16T09:26:57;101421.53;;;16.52;76.51
17362;BME280;8798;51.938;4.348;2022-10-16T09:29:26;101433.00;;;16.54;76.52
17362;BME280;8798;51.938;4.348;2022-10-16T09:31:55;101427.44;;;16.55;76.22
17362;BME280;8798;51.938;4.348;2022-10-16T09:34:36;101451.69;;;16.57;76.45
17362;BME280;8798;51.938;4.348;2022-10-16T09:37:08;101458.41;;;16.61;76.56
17362;BME280;8798;51.938;4.348;2022-10-16T09:39:44;101462.84;;;16.62;76.47
17362;BME280;8798;51.938;4.348;2022-10-16T09:42:14;101472.66;;;16.63;76.43
17362;BME280;8798;51.938;4.348;2022-10-16T09:44:47;101467.06;;;16.65;76.22
17362;BME280;8798;51.938;4.348;2022-10-16T09:47:17;101472.50;;;16.65;76.41
17362;BME280;8798;51.938;4.348;2022-10-16T09:49:53;101484.03;;;16.67;76.44
17362;BME280;8798;51.938;4.348;2022-10-16T09:52:22;101493.84;;;16.68;76.23
17362;BME280;8798;51.938;4.348;2022-10-16T09:54:52;101506.88;;;16.72;76.33
17362;BME280;8798;51.938;4.348;2022-10-16T09:57:21;101529.94;;;16.76;76.08
17362;BME280;8798;51.938;4.348;2022-10-16T09:59:52;101540.47;;;16.80;76.16
17362;BME280;8798;51.938;4.348;2022-10-16T10:02:26;101533.16;;;16.80;76.03
17362;BME280;8798;51.938;4.348;2022-10-16T10:04:56;101537.75;;;16.80;76.50
17362;BME280;8798;51.938;4.348;2022-10-16T10:07:25;101537.75;;;16.80;76.15
17362;BME280;8798;51.938;4.348;2022-10-16T10:09:56;101537.41;;;16.83;76.16
17362;BME280;8798;51.938;4.348;2022-10-16T10:12:25;101544.69;;;16.82;76.37
17362;BME280;8798;51.938;4.348;2022-10-16T10:14:56;101543.84;;;16.82;76.07
17362;BME280;8798;51.938;4.348;2022-10-16T10:17:26;101551.81;;;16.83;76.10
17362;BME280;8798;51.938;4.348;2022-10-16T10:19:56;101555.19;;;16.85;76.07
17362;BME280;8798;51.938;4.348;2022-10-16T10:22:27;101568.25;;;16.90;75.91
17362;BME280;8798;51.938;4.348;2022-10-16T10:24:59;101566.38;;;16.90;76.01
17362;BME280;8798;51.938;4.348;2022-10-16T10:27:34;101567.41;;;16.89;76.00
17362;BME280;8798;51.938;4.348;2022-10-16T10:30:10;101564.50;;;16.91;75.86
17362;BME280;8798;51.938;4.348;2022-10-16T10:32:48;101571.44;;;16.93;75.58
17362;BME280;8798;51.938;4.348;2022-10-16T10:35:24;101592.63;;;16.98;75.70
17362;BME280;8798;51.938;4.348;2022-10-16T10:38:06;101614.66;;;17.03;75.61
17362;BME280;8798;51.938;4.348;2022-10-16T10:40:47;101633.16;;;17.08;75.66
17362;BME280;8798;51.938;4.348;2022-10-16T10:43:39;101643.66;;;17.11;75.47
17362;BME280;8798;51.938;4.348;2022-10-16T10:46:17;101663.84;;;17.16;75.43
17362;BME280;8798;51.938;4.348;2022-10-16T10:48:57;101682.34;;;17.21;75.62
17362;BME280;8798;51.938;4.348;2022-10-16T10:51:31;101697.06;;;17.27;75.15
17362;BME280;8798;51.938;4.348;2022-10-16T10:54:13;101708.25;;;17.32;74.84
17362;BME280;8798;51.938;4.348;2022-10-16T10:56:47;101722.50;;;17.34;75.37
17362;BME280;8798;51.938;4.348;2022-10-16T11:02:23;101759.16;;;17.46;75.05
17362;BME280;8798;51.938;4.348;2022-10-16T11:05:14;101775.09;;;17.49;74.72
17362;BME280;8798;51.938;4.348;2022-10-16T11:07:50;101772.88;;;17.53;74.95
17362;BME280;8798;51.938;4.348;2022-10-16T11:10:22;101780.69;;;17.56;74.87
17362;BME280;8798;51.938;4.348;2022-10-16T11:12:54;101802.91;;;17.59;74.93
17362;BME280;8798;51.938;4.348;2022-10-16T11:15:27;101813.09;;;17.66;74.70
17362;BME280;8798;51.938;4.348;2022-10-16T11:18:00;101847.72;;;17.72;74.26
17362;BME280;8798;51.938;4.348;2022-10-16T11:20:33;101856.19;;;17.77;74.36
17362;BME280;8798;51.938;4.348;2022-10-16T11:23:06;101872.03;;;17.81;74.17
17362;BME280;8798;51.938;4.348;2022-10-16T11:25:39;101878.97;;;17.84;74.01
17362;BME280;8798;51.938;4.348;2022-10-16T11:28:11;101868.09;;;17.84;73.97
17362;BME280;8798;51.938;4.348;2022-10-16T11:30:44;101842.28;;;17.80;74.01
17362;BME280;8798;51.938;4.348;2022-10-16T11:33:27;101819.19;;;17.76;73.68
17362;BME280;8798;51.938;4.348;2022-10-16T11:36:04;101811.19;;;17.74;73.42
17362;BME280;8798;51.938;4.348;2022-10-16T11:38:38;101799.47;;;17.74;73.40
17362;BME280;8798;51.938;4.348;2022-10-16T11:41:15;101782.50;;;17.72;72.85
17362;BME280;8798;51.938;4.348;2022-10-16T11:43:52;101782.31;;;17.73;72.73
17362;BME280;8798;51.938;4.348;2022-10-16T11:46:27;101777.91;;;17.72;73.04
17362;BME280;8798;51.938;4.348;2022-10-16T11:49:02;101759.22;;;17.69;72.53
17362;BME280;8798;51.938;4.348;2022-10-16T11:51:36;101747.50;;;17.69;72.50
17362;BME280;8798;51.938;4.348;2022-10-16T11:54:13;101738.53;;;17.68;72.38
17362;BME280;8798;51.938;4.348;2022-10-16T11:56:45;101727.81;;;17.67;71.99
17362;BME280;8798;51.938;4.348;2022-10-16T11:59:21;101729.69;;;17.66;72.13
17362;BME280;8798;51.938;4.348;2022-10-16T12:01:56;101727.81;;;17.67;71.97
17362;BME280;8798;51.938;4.348;2022-10-16T12:04:34;101728.66;;;17.67;71.68
17362;BME280;8798;51.938;4.348;2022-10-16T12:07:14;101727.66;;;17.68;71.69
17362;BME280;8798;51.938;4.348;2022-10-16T12:09:42;101736.28;;;17.72;71.23
17362;BME280;8798;51.938;4.348;2022-10-16T12:12:24;101767.03;;;17.80;71.41
17362;BME280;8798;51.938;4.348;2022-10-16T12:15:01;101804.03;;;17.90;71.17
17362;BME280;8798;51.938;4.348;2022-10-16T12:17:48;101805.72;;;17.91;70.85
17362;BME280;8798;51.938;4.348;2022-10-16T12:20:27;101805.53;;;17.92;70.64
17362;BME280;8798;51.938;4.348;2022-10-16T12:22:58;101803.69;;;17.93;70.71
17362;BME280;8798;51.938;4.348;2022-10-16T12:25:28;101786.69;;;17.91;70.50
17362;BME280;8798;51.938;4.348;2022-10-16T12:28:03;101779.75;;;17.88;70.65
17362;BME280;8798;51.938;4.348;2022-10-16T12:30:34;101771.75;;;17.87;70.37
17362;BME280;8798;51.938;4.348;2022-10-16T12:33:04;101759.00;;;17.87;70.06
17362;BME280;8798;51.938;4.348;2022-10-16T12:35:35;101770.56;;;17.89;70.23
17362;BME280;8798;51.938;4.348;2022-10-16T12:38:16;101793.47;;;17.95;69.71
17362;BME280;8798;51.938;4.348;2022-10-16T12:40:45;101813.69;;;18.00;69.82
17362;BME280;8798;51.938;4.348;2022-10-16T12:43:26;101815.19;;;18.03;69.29
17362;BME280;8798;51.938;4.348;2022-10-16T12:46:04;101819.44;;;18.05;69.28
17362;BME280;8798;51.938;4.348;2022-10-16T12:48:32;101825.53;;;18.08;69.18
17362;BME280;8798;51.938;4.348;2022-10-16T12:51:24;101834.19;;;18.11;68.92
17362;BME280;8798;51.938;4.348;2022-10-16T12:54:00;101850.81;;;18.16;68.86
17362;BME280;8798;51.938;4.348;2022-10-16T12:56:37;101857.59;;;18.20;68.52
17362;BME280;8798;51.938;4.348;2022-10-16T12:59:15;101871.69;;;18.24;68.65
17362;BME280;8798;51.938;4.348;2022-10-16T13:01:56;101875.94;;;18.26;68.38
17362;BME280;8798;51.938;4.348;2022-10-16T13:04:47;101880.16;;;18.29;68.21
17362;BME280;8798;51.938;4.348;2022-10-16T13:07:51;101888.84;;;18.33;68.12
17362;BME280;8798;51.938;4.348;2022-10-16T13:10:25;101893.06;;;18.35;67.88
17362;BME280;8798;51.938;4.348;2022-10-16T13:13:13;101902.56;;;18.39;67.92
17362;BME280;8798;51.938;4.348;2022-10-16T13:15:53;101908.69;;;18.41;67.72
17362;BME280;8798;51.938;4.348;2022-10-16T13:18:29;101924.47;;;18.46;67.67
17362;BME280;8798;51.938;4.348;2022-10-16T13:21:09;101951.66;;;18.54;67.35
17362;BME280;8798;51.938;4.348;2022-10-16T13:23:47;101970.16;;;18.59;67.35
17362;BME280;8798;51.938;4.348;2022-10-16T13:26:25;101969.81;;;18.62;67.14
17362;BME280;8798;51.938;4.348;2022-10-16T13:28:59;101978.47;;;18.65;67.04
17362;BME280;8798;51.938;4.348;2022-10-16T13:31:28;101995.97;;;18.71;67.08